createdAt,value
2023-04-19T00:01:32.696Z,2.07
2023-04-19T00:04:00.759Z,2.07
2023-04-19T00:06:31.893Z,2.10
2023-04-19T00:08:59.597Z,1.93
2023-04-19T00:11:27.313Z,1.70
2023-04-19T00:13:55.043Z,2.30
2023-04-19T00:16:24.149Z,1.97
2023-04-19T00:18:51.947Z,2.30
2023-04-19T00:21:19.667Z,2.70
2023-04-19T00:23:47.431Z,2.03
2023-04-19T00:26:15.703Z,2.07
2023-04-19T00:28:43.464Z,2.20
2023-04-19T00:31:11.280Z,2.20
2023-04-19T00:33:40.413Z,2.40
2023-04-19T00:36:08.678Z,2.03
2023-04-19T00:38:36.393Z,2.60
2023-04-19T00:41:04.170Z,2.60
2023-04-19T00:43:32.012Z,2.33
2023-04-19T00:46:00.050Z,2.20
2023-04-19T00:48:27.952Z,2.20
2023-04-19T00:50:57.055Z,2.10
2023-04-19T00:53:24.844Z,2.33
2023-04-19T00:55:52.650Z,2.20
2023-04-19T00:58:20.740Z,1.90
2023-04-19T01:00:48.459Z,2.10
2023-04-19T01:03:17.042Z,1.87
2023-04-19T01:05:44.920Z,2.10
2023-04-19T01:08:14.033Z,1.97
2023-04-19T01:10:41.783Z,1.97
2023-04-19T01:13:09.537Z,1.90
2023-04-19T01:15:37.895Z,2.20
2023-04-19T01:18:05.854Z,2.10
2023-04-19T01:20:33.829Z,2.20
2023-04-19T01:23:02.996Z,2.23
2023-04-19T01:25:31.077Z,2.10
2023-04-19T01:27:58.805Z,2.20
2023-04-19T01:30:26.536Z,2.10
2023-04-19T01:32:54.286Z,2.10
2023-04-19T01:35:22.214Z,2.17
2023-04-19T01:37:50.658Z,1.83
2023-04-19T01:40:20.512Z,1.87
2023-04-19T01:42:48.254Z,1.70
2023-04-19T01:45:16.228Z,1.87
2023-04-19T01:47:44.008Z,1.50
2023-04-19T01:50:12.216Z,1.50
2023-04-19T01:52:40.034Z,1.33
2023-04-19T01:55:08.282Z,1.93
2023-04-19T01:57:37.356Z,1.20
2023-04-19T02:00:06.235Z,1.40
2023-04-19T02:02:34.131Z,1.30
2023-04-19T02:05:02.060Z,1.57
2023-04-19T02:07:29.809Z,1.33
2023-04-19T02:10:00.520Z,1.13
2023-04-19T02:12:29.534Z,1.30
2023-04-19T02:14:59.612Z,1.40
2023-04-19T02:17:27.810Z,1.30
2023-04-19T02:19:55.834Z,1.27
2023-04-19T02:22:23.576Z,1.13
2023-04-19T02:24:51.971Z,1.10
2023-04-19T02:27:19.754Z,1.20
2023-04-19T02:29:47.503Z,1.07
2023-04-19T02:32:16.622Z,1.23
2023-04-19T02:34:44.452Z,1.43
2023-04-19T02:37:12.165Z,1.30
2023-04-19T02:39:41.778Z,1.03
2023-04-19T02:42:09.480Z,1.00
2023-04-19T02:44:37.197Z,1.10
2023-04-19T02:47:05.101Z,1.10
2023-04-19T02:49:36.496Z,1.10
2023-04-19T02:52:04.312Z,1.00
2023-04-19T02:54:33.267Z,1.40
2023-04-19T02:57:01.094Z,1.10
2023-04-19T02:59:28.836Z,0.90
2023-04-19T03:01:56.694Z,1.40
2023-04-19T03:04:24.699Z,1.27
2023-04-19T03:06:53.960Z,1.33
2023-04-19T03:09:21.718Z,1.80
2023-04-19T03:11:49.424Z,2.53
2023-04-19T03:14:17.278Z,1.87
2023-04-19T03:16:45.258Z,1.53
2023-04-19T03:19:12.941Z,1.63
2023-04-19T03:21:41.254Z,1.60
2023-04-19T03:24:10.507Z,1.20
2023-04-19T03:26:38.249Z,2.60
2023-04-19T03:29:06.090Z,2.37
2023-04-19T03:31:33.896Z,2.40
2023-04-19T03:34:01.717Z,1.60
2023-04-19T03:36:29.575Z,1.50
2023-04-19T03:38:57.297Z,1.50
2023-04-19T03:41:28.150Z,1.40
2023-04-19T03:43:55.873Z,1.13
2023-04-19T03:46:23.621Z,0.93
2023-04-19T03:48:51.525Z,1.07
2023-04-19T03:51:19.430Z,0.83
2023-04-19T03:53:47.130Z,1.30
2023-04-19T03:56:14.914Z,0.80
2023-04-19T03:58:43.992Z,1.13
2023-04-19T04:01:19.192Z,1.30
2023-04-19T04:03:47.042Z,1.60
2023-04-19T04:06:15.038Z,1.27
2023-04-19T04:08:42.751Z,1.80
2023-04-19T04:11:10.600Z,2.10
2023-04-19T04:13:38.505Z,2.67
2023-04-19T04:16:07.766Z,1.80
2023-04-19T04:18:36.119Z,2.00
2023-04-19T04:21:03.960Z,1.90
2023-04-19T04:23:31.954Z,2.23
2023-04-19T04:26:00.835Z,2.87
2023-04-19T04:28:29.045Z,2.77
2023-04-19T04:30:57.481Z,2.37
2023-04-19T04:33:27.377Z,2.63
2023-04-19T04:35:56.466Z,2.50
2023-04-19T04:38:25.240Z,2.50
2023-04-19T04:40:53.692Z,2.20
2023-04-19T04:43:22.733Z,2.63
2023-04-19T04:45:50.912Z,2.80
2023-04-19T04:48:19.099Z,2.70
2023-04-19T04:50:48.222Z,2.00
2023-04-19T04:53:16.019Z,2.13
2023-04-19T04:55:43.793Z,1.97
2023-04-19T04:58:11.502Z,2.40
2023-04-19T05:00:39.657Z,2.40
2023-04-19T05:03:07.879Z,1.80
2023-04-19T05:05:35.905Z,1.40
2023-04-19T05:08:05.459Z,1.80
2023-04-19T05:10:33.177Z,2.10
2023-04-19T05:13:05.678Z,2.37
2023-04-19T05:15:33.423Z,1.97
2023-04-19T05:18:01.243Z,1.60
2023-04-19T05:20:29.858Z,2.60
2023-04-19T05:23:01.437Z,2.03
2023-04-19T05:25:30.858Z,2.47
2023-04-19T05:27:58.976Z,1.77
2023-04-19T05:30:26.697Z,1.27
2023-04-19T05:32:54.508Z,1.50
2023-04-19T05:35:22.551Z,1.70
2023-04-19T05:37:50.292Z,1.10
2023-04-19T05:40:19.241Z,1.57
2023-04-19T05:42:48.324Z,1.37
2023-04-19T05:45:18.543Z,1.60
2023-04-19T05:47:46.298Z,1.30
2023-04-19T05:50:15.004Z,1.10
2023-04-19T05:52:42.810Z,1.40
2023-04-19T05:55:10.990Z,1.30
2023-04-19T05:57:38.787Z,1.10
2023-04-19T06:00:10.952Z,1.00
2023-04-19T06:02:38.814Z,1.07
2023-04-19T06:05:10.443Z,1.10
2023-04-19T06:07:43.267Z,1.27
2023-04-19T06:10:15.140Z,1.33
2023-04-19T06:12:42.843Z,1.30
2023-04-19T06:15:12.922Z,1.37
2023-04-19T06:17:40.762Z,1.30
2023-04-19T06:20:10.592Z,1.60
2023-04-19T06:22:43.592Z,0.90
2023-04-19T06:25:11.503Z,1.20
2023-04-19T06:27:39.216Z,1.20
2023-04-19T06:30:08.290Z,1.20
2023-04-19T06:32:37.403Z,1.13
2023-04-19T06:35:07.047Z,1.33
2023-04-19T06:37:34.853Z,1.03
2023-04-19T06:40:02.655Z,1.23
2023-04-19T06:42:30.355Z,1.30
2023-04-19T06:44:58.185Z,1.30
2023-04-19T06:47:25.987Z,1.20
2023-04-19T06:49:55.297Z,1.20
2023-04-19T06:52:23.115Z,1.40
2023-04-19T06:54:51.286Z,1.27
2023-04-19T06:57:20.026Z,1.07
2023-04-19T06:59:47.801Z,1.23
2023-04-19T07:02:15.598Z,1.17
2023-04-19T07:04:43.480Z,1.53
2023-04-19T07:07:13.626Z,1.33
2023-04-19T07:09:41.324Z,1.10
2023-04-19T07:12:09.311Z,1.20
2023-04-19T07:14:37.155Z,1.20
2023-04-19T07:17:05.811Z,1.17
2023-04-19T07:19:35.524Z,1.40
2023-04-19T07:22:03.516Z,1.40
2023-04-19T07:24:32.931Z,1.50
2023-04-19T07:27:01.840Z,1.43
2023-04-19T07:29:29.769Z,1.50
2023-04-19T07:31:59.634Z,1.63
2023-04-19T07:34:27.426Z,1.57
2023-04-19T07:36:55.128Z,1.77
2023-04-19T07:39:22.847Z,1.53
2023-04-19T07:41:51.948Z,1.60
2023-04-19T07:44:19.936Z,1.50
2023-04-19T07:46:47.702Z,1.30
2023-04-19T07:49:15.624Z,0.87
2023-04-19T07:51:43.370Z,1.43
2023-04-19T07:54:11.445Z,1.30
2023-04-19T07:56:39.227Z,1.30
2023-04-19T07:59:09.591Z,1.10
2023-04-19T08:01:38.136Z,1.37
2023-04-19T08:04:06.568Z,1.57
2023-04-19T08:06:34.616Z,1.23
2023-04-19T08:09:03.095Z,1.50
2023-04-19T08:11:30.894Z,1.27
2023-04-19T08:14:28.412Z,1.60
2023-04-19T08:19:18.591Z,1.30
2023-04-19T08:21:46.326Z,0.90
2023-04-19T08:26:42.406Z,1.30
2023-04-19T08:29:10.138Z,1.40
2023-04-19T08:31:38.150Z,1.20
2023-04-19T08:34:07.231Z,1.30
2023-04-19T08:36:39.401Z,3.83
2023-04-19T08:39:17.773Z,1.40
2023-04-19T08:42:02.899Z,1.40
2023-04-19T08:44:36.811Z,1.30
2023-04-19T08:47:07.291Z,1.40
2023-04-19T08:49:39.951Z,1.33
2023-04-19T08:52:11.103Z,1.47
2023-04-19T08:54:39.818Z,1.80
2023-04-19T08:57:08.570Z,1.30
2023-04-19T08:59:36.470Z,1.33
2023-04-19T09:02:04.362Z,1.23
2023-04-19T09:04:36.386Z,1.20
2023-04-19T09:07:08.161Z,1.30
2023-04-19T09:09:45.668Z,1.33
2023-04-19T09:12:23.550Z,1.73
2023-04-19T09:17:21.916Z,1.63
2023-04-19T09:19:50.961Z,1.30
2023-04-19T09:22:20.238Z,1.40
2023-04-19T09:27:27.265Z,1.07
2023-04-19T09:29:55.513Z,1.50
2023-04-19T09:32:23.462Z,1.60
2023-04-19T09:34:56.481Z,1.40
2023-04-19T09:39:57.342Z,1.67
2023-04-19T09:42:47.346Z,1.50
2023-04-19T09:45:29.304Z,1.70
2023-04-19T09:48:07.433Z,1.30
2023-04-19T09:50:50.324Z,1.10
2023-04-19T09:53:24.722Z,1.73
2023-04-19T09:56:01.308Z,1.30
2023-04-19T09:58:38.156Z,1.60
2023-04-19T10:01:17.098Z,1.43
2023-04-19T10:03:49.141Z,1.60
2023-04-19T10:06:35.676Z,1.40
2023-04-19T10:09:07.198Z,1.60
2023-04-19T10:11:40.101Z,1.90
2023-04-19T10:14:09.441Z,1.60
2023-04-19T10:16:39.245Z,1.70
2023-04-19T10:19:10.321Z,1.97
2023-04-19T10:21:39.424Z,1.70
2023-04-19T10:24:10.344Z,1.80
2023-04-19T10:27:11.053Z,1.57
2023-04-19T10:29:59.291Z,1.67
2023-04-19T10:32:29.524Z,1.77
2023-04-19T10:35:02.862Z,1.90
2023-04-19T10:37:32.690Z,1.50
2023-04-19T10:40:01.853Z,1.60
2023-04-19T10:43:02.750Z,1.40
2023-04-19T10:45:34.434Z,1.90
2023-04-19T10:48:04.530Z,1.40
2023-04-19T10:51:02.133Z,1.60
2023-04-19T10:53:45.837Z,1.80
2023-04-19T10:56:16.078Z,1.80
2023-04-19T10:59:24.253Z,1.37
2023-04-19T11:01:57.632Z,1.70
2023-04-19T11:05:09.842Z,1.50
2023-04-19T11:07:42.084Z,1.70
2023-04-19T11:10:11.473Z,1.70
2023-04-19T11:12:44.038Z,1.63
2023-04-19T11:15:12.045Z,1.60
2023-04-19T11:17:39.893Z,1.43
2023-04-19T11:20:10.844Z,1.40
2023-04-19T11:22:39.759Z,1.80
2023-04-19T11:25:12.581Z,1.83
2023-04-19T11:27:43.049Z,1.60
2023-04-19T11:30:13.338Z,1.50
2023-04-19T11:32:46.915Z,1.60
2023-04-19T11:35:14.982Z,1.60
2023-04-19T11:37:42.711Z,1.63
2023-04-19T11:40:15.608Z,1.40
2023-04-19T11:42:44.969Z,1.80
2023-04-19T11:45:25.928Z,1.30
2023-04-19T11:47:57.182Z,1.50
2023-04-19T11:50:36.180Z,1.50
2023-04-19T11:53:12.224Z,1.73
2023-04-19T11:55:40.132Z,1.80
2023-04-19T11:58:10.544Z,1.50
2023-04-19T12:00:38.413Z,1.87
2023-04-19T12:03:06.370Z,1.60
2023-04-19T12:05:34.847Z,1.40
2023-04-19T12:08:03.937Z,1.53
2023-04-19T12:10:32.061Z,1.57
2023-04-19T12:13:00.350Z,2.13
2023-04-19T12:15:44.712Z,1.70
2023-04-19T12:18:12.729Z,1.27
2023-04-19T12:20:46.305Z,1.50
2023-04-19T12:23:15.762Z,1.90
2023-04-19T12:25:44.758Z,1.40
2023-04-19T12:28:12.637Z,1.50
2023-04-19T12:30:40.782Z,1.60
2023-04-19T12:33:10.370Z,1.70
2023-04-19T12:35:39.145Z,1.67
2023-04-19T12:38:06.926Z,1.77
2023-04-19T12:40:35.084Z,1.43
2023-04-19T12:43:02.972Z,1.63
2023-04-19T12:45:30.757Z,1.73
2023-04-19T12:47:58.562Z,1.50
2023-04-19T12:50:27.710Z,1.57
2023-04-19T12:52:55.494Z,1.77
2023-04-19T12:55:23.302Z,1.80
2023-04-19T12:57:51.101Z,1.50
2023-04-19T13:00:19.342Z,1.67
2023-04-19T13:02:48.342Z,2.03
2023-04-19T13:05:16.431Z,1.60
2023-04-19T13:07:45.539Z,1.50
2023-04-19T13:10:13.508Z,1.53
2023-04-19T13:12:41.365Z,1.40
2023-04-19T13:15:10.574Z,1.67
2023-04-19T13:17:38.451Z,1.40
2023-04-19T13:20:07.541Z,1.50
2023-04-19T13:22:35.353Z,1.47
2023-04-19T13:25:05.021Z,1.50
2023-04-19T13:27:32.797Z,1.60
2023-04-19T13:30:01.045Z,1.20
2023-04-19T13:32:28.805Z,1.37
2023-04-19T13:34:56.618Z,1.40
2023-04-19T13:37:24.371Z,1.60
2023-04-19T13:39:52.443Z,1.80
2023-04-19T13:42:23.283Z,1.77
2023-04-19T13:44:51.008Z,1.50
2023-04-19T13:47:18.735Z,1.53
2023-04-19T13:49:52.032Z,1.50
2023-04-19T13:52:19.966Z,1.63
2023-04-19T13:54:47.702Z,1.47
2023-04-19T13:57:15.558Z,1.50
2023-04-19T13:59:44.629Z,1.50
2023-04-19T14:02:12.479Z,1.43
2023-04-19T14:04:40.374Z,1.50
2023-04-19T14:07:08.553Z,1.50
2023-04-19T14:09:36.749Z,1.73
2023-04-19T14:12:05.212Z,1.50
2023-04-19T14:14:33.220Z,1.70
2023-04-19T14:17:02.356Z,1.53
2023-04-19T14:19:30.090Z,1.20
2023-04-19T14:21:58.207Z,1.53
2023-04-19T14:24:26.060Z,1.53
2023-04-19T14:27:09.141Z,1.73
2023-04-19T14:29:37.907Z,1.40
2023-04-19T14:32:23.633Z,1.50
2023-04-19T14:34:52.771Z,1.30
2023-04-19T14:37:20.548Z,1.40
2023-04-19T14:39:48.479Z,1.60
2023-04-19T14:42:16.214Z,1.67
2023-04-19T14:44:43.933Z,1.60
2023-04-19T14:47:13.114Z,1.70
2023-04-19T14:49:41.545Z,1.47
2023-04-19T14:52:09.461Z,1.47
2023-04-19T14:54:37.172Z,1.37
2023-04-19T14:57:05.060Z,1.93
2023-04-19T14:59:32.795Z,1.50
2023-04-19T15:02:00.553Z,1.70
2023-04-19T15:04:29.689Z,1.70
2023-04-19T15:06:57.451Z,1.50
2023-04-19T15:09:25.122Z,1.70
2023-04-19T15:11:52.815Z,1.80
2023-04-19T15:14:21.082Z,1.50
2023-04-19T15:16:48.871Z,1.50
2023-04-19T15:19:16.903Z,1.50
2023-04-19T15:21:46.265Z,1.93
2023-04-19T15:24:13.989Z,1.50
2023-04-19T15:26:44.123Z,1.70
2023-04-19T15:29:12.190Z,1.50
2023-04-19T15:31:40.066Z,1.57
2023-04-19T15:34:07.932Z,1.50
2023-04-19T15:36:35.697Z,1.73
2023-04-19T15:39:04.956Z,1.60
2023-04-19T15:41:32.652Z,1.47
2023-04-19T15:44:01.142Z,1.40
2023-04-19T15:46:28.951Z,1.80
2023-04-19T15:48:56.695Z,1.60
2023-04-19T15:51:24.395Z,1.30
2023-04-19T15:53:52.359Z,1.50
2023-04-19T15:56:21.423Z,1.63
2023-04-19T15:58:49.151Z,1.70
2023-04-19T16:01:18.842Z,1.80
2023-04-19T16:03:47.169Z,1.47
2023-04-19T16:06:15.156Z,1.83
2023-04-19T16:08:42.911Z,1.23
2023-04-19T16:11:10.820Z,1.40
2023-04-19T16:13:39.952Z,2.07
2023-04-19T16:16:08.177Z,1.90
2023-04-19T16:18:35.932Z,1.73
2023-04-19T16:21:04.611Z,1.90
2023-04-19T16:23:32.317Z,1.60
2023-04-19T16:26:00.008Z,1.53
2023-04-19T16:28:27.751Z,1.70
2023-04-19T16:30:56.854Z,1.97
2023-04-19T16:33:24.590Z,1.60
2023-04-19T16:35:52.394Z,1.80
2023-04-19T16:38:20.144Z,1.67
2023-04-19T16:40:48.625Z,1.63
2023-04-19T16:43:16.453Z,1.53
2023-04-19T16:45:44.242Z,1.70
2023-04-19T16:48:13.447Z,1.70
2023-04-19T16:50:41.193Z,1.60
2023-04-19T16:53:09.117Z,2.00
2023-04-19T16:55:37.422Z,1.60
2023-04-19T16:58:05.479Z,1.57
2023-04-19T17:00:33.422Z,1.63
2023-04-19T17:03:01.599Z,1.57
2023-04-19T17:05:30.932Z,2.17
2023-04-19T17:07:58.708Z,1.63
2023-04-19T17:10:27.714Z,1.83
2023-04-19T17:12:56.413Z,1.70
2023-04-19T17:15:24.247Z,1.30
2023-04-19T17:17:52.168Z,1.17
2023-04-19T17:20:20.239Z,1.70
2023-04-19T17:22:49.350Z,1.33
2023-04-19T17:25:17.088Z,1.50
2023-04-19T17:27:44.863Z,1.50
2023-04-19T17:30:13.338Z,1.30
2023-04-19T17:32:42.240Z,1.57
2023-04-19T17:35:10.500Z,1.73
2023-04-19T17:37:38.287Z,1.40
2023-04-19T17:40:09.052Z,1.30
2023-04-19T17:42:36.811Z,1.60
2023-04-19T17:45:06.619Z,1.40
2023-04-19T17:47:34.383Z,1.50
2023-04-19T17:50:07.222Z,1.70
2023-04-19T17:52:35.100Z,1.70
2023-04-19T17:55:04.550Z,1.50
2023-04-19T17:57:34.172Z,1.40
2023-04-19T18:00:06.090Z,1.73
2023-04-19T18:02:33.992Z,1.53
2023-04-19T18:05:02.042Z,1.50
2023-04-19T18:07:30.050Z,2.00
2023-04-19T18:09:57.762Z,1.47
2023-04-19T18:12:25.569Z,1.80
2023-04-19T18:14:54.647Z,1.70
2023-04-19T18:17:22.391Z,1.40
2023-04-19T18:19:50.122Z,1.50
2023-04-19T18:22:17.916Z,2.10
2023-04-19T18:24:47.320Z,2.43
2023-04-19T18:27:15.105Z,2.63
2023-04-19T18:29:42.849Z,2.33
2023-04-19T18:32:13.042Z,2.50
2023-04-19T18:34:41.367Z,2.63
2023-04-19T18:37:16.198Z,2.50
2023-04-19T18:39:44.004Z,2.13
2023-04-19T18:42:11.807Z,2.50
2023-04-19T18:44:53.016Z,2.50
2023-04-19T18:47:23.578Z,2.97
2023-04-19T18:50:03.450Z,2.03
2023-04-19T18:52:32.661Z,2.20
2023-04-19T18:55:00.778Z,2.60
2023-04-19T18:57:30.500Z,1.90
2023-04-19T19:00:01.579Z,2.00
2023-04-19T19:02:30.949Z,2.00
2023-04-19T19:05:01.970Z,1.90
2023-04-19T19:10:04.056Z,2.77
2023-04-19T19:12:42.759Z,2.20
2023-04-19T19:15:11.276Z,2.40
2023-04-19T19:17:40.749Z,2.03
2023-04-19T19:20:10.555Z,1.60
2023-04-19T19:22:38.261Z,1.90
2023-04-19T19:25:07.082Z,2.33
2023-04-19T19:27:35.326Z,2.20
2023-04-19T19:30:03.521Z,2.50
2023-04-19T19:32:32.165Z,2.47
2023-04-19T19:35:05.339Z,2.03
2023-04-19T19:37:35.720Z,2.50
2023-04-19T19:40:05.251Z,1.83
2023-04-19T19:42:34.204Z,1.90
2023-04-19T19:45:03.402Z,2.00
2023-04-19T19:47:35.201Z,2.33
2023-04-19T19:50:52.065Z,1.77
2023-04-19T19:52:54.263Z,2.00
2023-04-19T19:55:22.076Z,1.70
2023-04-19T19:58:25.746Z,1.70
2023-04-19T20:00:46.299Z,1.70
2023-04-19T20:03:24.734Z,2.27
2023-04-19T20:06:17.887Z,1.53
2023-04-19T20:08:50.103Z,1.50
2023-04-19T20:11:17.985Z,1.57
2023-04-19T20:13:45.883Z,1.20
2023-04-19T20:16:14.630Z,1.43
2023-04-19T20:18:43.097Z,1.40
2023-04-19T20:21:12.235Z,1.30
2023-04-19T20:23:40.682Z,1.60
2023-04-19T20:26:08.642Z,1.30
2023-04-19T20:28:36.556Z,1.37
2023-04-19T20:31:04.297Z,1.40
2023-04-19T20:33:31.988Z,1.57
2023-04-19T20:36:00.593Z,1.20
2023-04-19T20:38:29.799Z,1.50
2023-04-19T20:40:57.582Z,1.40
2023-04-19T20:43:26.019Z,1.40
2023-04-19T20:45:54.457Z,1.40
2023-04-19T20:48:22.258Z,1.30
2023-04-19T20:50:50.000Z,1.37
2023-04-19T20:53:17.779Z,1.47
2023-04-19T20:55:46.860Z,1.30
2023-04-19T20:58:14.564Z,1.30
2023-04-19T21:00:42.337Z,1.30
2023-04-19T21:03:10.339Z,1.47
2023-04-19T21:05:38.129Z,1.83
2023-04-19T21:08:06.076Z,1.33
2023-04-19T21:10:33.824Z,1.30
2023-04-19T21:13:02.916Z,1.40
2023-04-19T21:15:30.680Z,1.67
2023-04-19T21:17:58.484Z,1.70
2023-04-19T21:20:26.462Z,1.27
2023-04-19T21:22:54.170Z,1.50
2023-04-19T21:25:22.016Z,1.37
2023-04-19T21:27:50.189Z,1.37
2023-04-19T21:30:20.426Z,1.30
2023-04-19T21:32:49.139Z,1.30
2023-04-19T21:35:16.950Z,1.63
2023-04-19T21:37:44.702Z,1.33
2023-04-19T21:40:13.075Z,1.63
2023-04-19T21:42:41.178Z,1.50
2023-04-19T21:45:09.955Z,1.33
2023-04-19T21:47:39.090Z,1.60
2023-04-19T21:50:08.192Z,1.70
2023-04-19T21:52:35.998Z,1.60
2023-04-19T21:55:03.782Z,1.50
2023-04-19T21:57:31.566Z,1.67
2023-04-19T21:59:59.494Z,1.30
2023-04-19T22:02:27.318Z,1.47
2023-04-19T22:04:56.685Z,1.60
2023-04-19T22:07:24.448Z,1.33
2023-04-19T22:09:52.283Z,1.77
2023-04-19T22:12:20.050Z,1.63
2023-04-19T22:14:47.746Z,1.60
2023-04-19T22:17:18.493Z,1.73
2023-04-19T22:19:46.711Z,1.90
2023-04-19T22:22:16.388Z,1.87
2023-04-19T22:24:56.154Z,1.90
2023-04-19T22:27:25.201Z,1.90
2023-04-19T22:29:52.979Z,1.70
2023-04-19T22:32:20.792Z,1.60
2023-04-19T22:34:48.593Z,1.67
2023-04-19T22:37:17.753Z,1.90
2023-04-19T22:39:45.583Z,1.50
2023-04-19T22:42:13.451Z,1.60
2023-04-19T22:44:42.510Z,1.50
2023-04-19T22:47:11.860Z,1.43
2023-04-19T22:49:43.008Z,1.70
2023-04-19T22:52:11.295Z,1.53
2023-04-19T22:54:40.404Z,2.00
2023-04-19T22:57:08.220Z,1.90
2023-04-19T22:59:35.960Z,1.83
2023-04-19T23:02:04.275Z,1.83
2023-04-19T23:04:34.327Z,2.03
2023-04-19T23:07:02.225Z,1.63
2023-04-19T23:09:30.393Z,1.73
2023-04-19T23:12:00.709Z,2.30
2023-04-19T23:14:29.910Z,1.90
2023-04-19T23:16:58.529Z,2.10
2023-04-19T23:19:26.342Z,1.80
2023-04-19T23:21:54.091Z,1.83
2023-04-19T23:24:21.793Z,1.80
2023-04-19T23:26:49.536Z,2.03
2023-04-19T23:29:18.837Z,1.90
2023-04-19T23:31:46.843Z,1.80
2023-04-19T23:34:15.008Z,2.10
2023-04-19T23:36:42.743Z,1.93
2023-04-19T23:39:10.745Z,1.83
2023-04-19T23:41:38.546Z,2.20
2023-04-19T23:44:06.596Z,1.97
2023-04-19T23:46:35.786Z,1.93
2023-04-19T23:49:03.738Z,2.10
2023-04-19T23:51:32.826Z,1.80
2023-04-19T23:54:00.600Z,2.00
2023-04-19T23:56:28.352Z,1.93
2023-04-19T23:58:56.353Z,2.20
